Time,TemperatureF,DewpointF,PressureIn,WindDirection,WindDirectionDegrees,WindSpeedMPH,WindSpeedGustMPH,Humidity,HourlyPrecipIn,Conditions,Clouds,dailyrainin,SoftwareType,DateUTC
2013-05-10 00:00:00,57.7,51.9,29.93,WSW,238,0.0,0.0,81,0.00,,,0.00,WeatherCatV1.15B25,2013-05-10 04:00:00,
2013-05-10 00:01:00,57.7,51.9,29.92,WSW,238,0.0,0.0,81,0.00,,,0.00,WeatherCatV1.15B25,2013-05-10 04:01:00,
2013-05-10 00:02:00,57.7,51.9,29.92,WSW,238,0.0,0.0,81,0.00,,,0.00,WeatherCatV1.15B25,2013-05-10 04:02:00,
2013-05-10 00:03:00,57.7,51.9,29.93,WSW,238,0.0,0.0,81,0.00,,,0.00,WeatherCatV1.15B25,2013-05-10 04:03:00,
2013-05-10 00:05:00,57.7,51.9,29.93,WSW,238,0.0,0.0,81,0.00,,,0.00,WeatherCatV1.15B25,2013-05-10 04:05:00,
2013-05-10 00:06:00,57.7,51.9,29.93,WSW,238,0.0,0.0,81,0.00,,,0.00,WeatherCatV1.15B25,2013-05-10 04:06:00,
2013-05-10 00:11:00,57.7,51.6,29.93,WSW,238,0.0,0.0,80,0.00,,,0.00,WeatherCatV1.15B25,2013-05-10 04:11:00,
2013-05-10 00:16:00,57.6,51.5,29.93,WSW,238,0.0,0.0,80,0.00,,,0.00,WeatherCatV1.15B25,2013-05-10 04:16:00,
2013-05-10 00:21:00,57.7,51.6,29.93,WSW,238,0.0,0.0,80,0.00,,,0.00,WeatherCatV1.15B25,2013-05-10 04:21:00,
2013-05-10 00:26:00,57.8,51.7,29.93,WSW,238,0.0,0.0,80,0.00,,,0.00,WeatherCatV1.15B25,2013-05-10 04:26:00,
2013-05-10 00:31:00,57.9,51.8,29.93,WSW,238,0.0,0.0,80,0.00,,,0.00,WeatherCatV1.15B25,2013-05-10 04:31:00,
2013-05-10 00:36:00,57.9,51.8,29.93,WSW,238,0.0,0.0,80,0.00,,,0.00,WeatherCatV1.15B25,2013-05-10 04:36:00,
2013-05-10 00:41:00,58.1,51.3,29.93,WSW,238,0.0,0.0,78,0.00,,,0.00,WeatherCatV1.15B25,2013-05-10 04:41:00,
2013-05-10 00:46:00,58.5,50.6,29.93,WSW,238,0.0,0.0,75,0.00,,,0.00,WeatherCatV1.15B25,2013-05-10 04:46:00,
2013-05-10 00:51:00,58.8,50.9,29.93,WSW,238,0.0,0.0,75,0.00,,,0.00,WeatherCatV1.15B25,2013-05-10 04:51:00,
2013-05-10 00:56:00,59.1,49.3,29.93,WSW,238,0.0,0.0,70,0.00,,,0.00,WeatherCatV1.15B25,2013-05-10 04:56:00,
2013-05-10 01:01:00,59.6,48.2,29.93,WSW,238,0.0,0.0,66,0.00,,,0.00,WeatherCatV1.15B25,2013-05-10 05:01:00,
2013-05-10 01:06:00,60.1,47.9,29.93,WSW,238,0.0,0.0,64,0.00,,,0.00,WeatherCatV1.15B25,2013-05-10 05:06:00,
2013-05-10 01:11:00,60.1,47.9,29.93,WSW,238,0.0,0.0,64,0.00,,,0.00,WeatherCatV1.15B25,2013-05-10 05:11:00,
2013-05-10 01:16:00,60.1,47.9,29.93,WSW,238,0.0,0.0,64,0.00,,,0.00,WeatherCatV1.15B25,2013-05-10 05:16:00,
2013-05-10 01:21:00,60.1,47.9,29.92,WSW,238,0.0,0.0,64,0.00,,,0.00,WeatherCatV1.15B25,2013-05-10 05:21:00,
2013-05-10 01:26:00,59.9,47.3,29.93,WSW,238,0.0,0.0,63,0.00,,,0.00,WeatherCatV1.15B25,2013-05-10 05:26:00,
2013-05-10 01:31:00,59.9,47.3,29.92,WSW,238,0.0,0.0,63,0.00,,,0.00,WeatherCatV1.15B25,2013-05-10 05:31:00,
2013-05-10 01:36:00,59.8,47.6,29.92,WSW,238,0.0,0.0,64,0.00,,,0.00,WeatherCatV1.15B25,2013-05-10 05:36:00,
2013-05-10 01:41:00,59.7,47.1,29.92,WSW,238,0.0,0.0,63,0.00,,,0.00,WeatherCatV1.15B25,2013-05-10 05:41:00,
2013-05-10 01:46:00,59.7,47.1,29.92,WSW,238,0.0,0.0,63,0.00,,,0.00,WeatherCatV1.15B25,2013-05-10 05:46:00,
2013-05-10 01:51:00,59.7,47.9,29.91,WSW,238,0.0,0.0,65,0.00,,,0.00,WeatherCatV1.15B25,2013-05-10 05:51:00,
2013-05-10 01:56:00,59.6,47.4,29.91,WSW,238,0.0,0.0,64,0.00,,,0.00,WeatherCatV1.15B25,2013-05-10 05:56:00,
2013-05-10 02:01:00,59.5,46.9,29.91,WSW,238,0.0,0.0,63,0.00,,,0.00,WeatherCatV1.15B25,2013-05-10 06:01:00,
2013-05-10 02:06:00,59.5,46.5,29.91,WSW,238,0.0,0.0,62,0.00,,,0.00,WeatherCatV1.15B25,2013-05-10 06:06:00,
2013-05-10 02:11:00,59.5,46.5,29.91,WSW,238,0.0,0.0,62,0.00,,,0.00,WeatherCatV1.15B25,2013-05-10 06:11:00,
2013-05-10 02:16:00,59.5,45.6,29.90,WSW,238,0.0,0.0,60,0.00,,,0.00,WeatherCatV1.15B25,2013-05-10 06:16:00,
2013-05-10 02:21:00,59.5,46.5,29.90,WSW,238,0.0,0.0,62,0.00,,,0.00,WeatherCatV1.15B25,2013-05-10 06:21:00,
2013-05-10 02:26:00,59.4,46.4,29.90,WSW,238,0.0,0.0,62,0.00,,,0.00,WeatherCatV1.15B25,2013-05-10 06:26:00,
2013-05-10 02:31:00,59.3,46.7,29.90,WSW,238,0.0,0.0,63,0.00,,,0.00,WeatherCatV1.15B25,2013-05-10 06:31:00,
2013-05-10 02:36:00,59.2,46.6,29.90,WSW,238,0.0,0.0,63,0.00,,,0.00,WeatherCatV1.15B25,2013-05-10 06:36:00,
2013-05-10 02:41:00,59.1,47.3,29.90,WSW,238,0.0,0.0,65,0.00,,,0.00,WeatherCatV1.15B25,2013-05-10 06:41:00,
2013-05-10 02:46:00,59.1,46.1,29.90,WSW,238,0.0,0.0,62,0.00,,,0.00,WeatherCatV1.15B25,2013-05-10 06:46:00,
2013-05-10 02:51:00,59.4,46.4,29.90,WSW,238,0.0,0.0,62,0.00,,,0.00,WeatherCatV1.15B25,2013-05-10 06:51:00,
2013-05-10 02:56:00,59.6,47.0,29.90,WSW,238,0.0,0.0,63,0.00,,,0.00,WeatherCatV1.15B25,2013-05-10 06:56:00,
2013-05-10 03:01:00,59.6,47.0,29.90,WSW,238,0.0,0.0,63,0.00,,,0.00,WeatherCatV1.15B25,2013-05-10 07:01:00,
2013-05-10 03:06:00,59.8,46.3,29.90,WSW,238,0.0,0.0,61,0.00,,,0.00,WeatherCatV1.15B25,2013-05-10 07:06:00,
2013-05-10 03:11:00,60.0,46.5,29.90,WSW,238,0.0,0.0,61,0.00,,,0.00,WeatherCatV1.15B25,2013-05-10 07:11:00,
2013-05-10 03:16:00,60.1,45.7,29.89,WSW,238,0.0,0.0,59,0.00,,,0.00,WeatherCatV1.15B25,2013-05-10 07:16:00,
2013-05-10 03:21:00,60.6,45.3,29.89,SSE,155,0.0,0.0,57,0.00,,,0.00,WeatherCatV1.15B25,2013-05-10 07:21:00,
2013-05-10 03:26:00,61.0,45.2,29.89,SSE,155,0.0,0.0,56,0.00,,,0.00,WeatherCatV1.15B25,2013-05-10 07:26:00,
2013-05-10 03:31:00,61.3,45.0,29.89,SE,137,0.0,0.0,55,0.00,,,0.00,WeatherCatV1.15B25,2013-05-10 07:31:00,
2013-05-10 03:36:00,61.5,44.7,29.88,SE,138,0.0,0.0,54,0.00,,,0.00,WeatherCatV1.15B25,2013-05-10 07:36:00,
2013-05-10 03:41:00,61.6,44.8,29.88,SE,138,0.0,0.0,54,0.00,,,0.00,WeatherCatV1.15B25,2013-05-10 07:41:00,
2013-05-10 03:46:00,62.1,44.3,29.88,SE,128,1.0,4.0,52,0.00,,,0.00,WeatherCatV1.15B25,2013-05-10 07:46:00,
2013-05-10 03:51:00,62.4,44.5,29.88,ESE,122,3.0,5.0,52,0.00,,,0.00,WeatherCatV1.15B25,2013-05-10 07:51:00,
2013-05-10 03:56:00,62.5,44.1,29.87,ESE,121,3.0,3.0,51,0.00,,,0.00,WeatherCatV1.15B25,2013-05-10 07:56:00,
2013-05-10 04:01:00,62.6,44.2,29.87,SE,141,1.0,2.0,51,0.00,,,0.00,WeatherCatV1.15B25,2013-05-10 08:01:00,
2013-05-10 04:06:00,62.7,43.8,29.86,SE,127,2.0,5.0,50,0.00,,,0.00,WeatherCatV1.15B25,2013-05-10 08:06:00,
2013-05-10 04:11:00,62.9,44.0,29.86,SE,125,0.0,4.0,50,0.00,,,0.00,WeatherCatV1.15B25,2013-05-10 08:11:00,
2013-05-10 04:16:00,63.0,44.6,29.86,ESE,119,3.0,4.0,51,0.00,,,0.00,WeatherCatV1.15B25,2013-05-10 08:16:00,
2013-05-10 04:21:00,63.6,44.6,29.86,ESE,108,3.0,4.0,50,0.00,,,0.00,WeatherCatV1.15B25,2013-05-10 08:21:00,
2013-05-10 04:26:00,63.8,44.8,29.86,ESE,121,0.0,1.0,50,0.00,,,0.00,WeatherCatV1.15B25,2013-05-10 08:26:00,
2013-05-10 04:31:00,63.8,44.8,29.86,ESE,121,0.0,4.0,50,0.00,,,0.00,WeatherCatV1.15B25,2013-05-10 08:31:00,
2013-05-10 04:36:00,63.7,45.7,29.86,ESE,122,0.0,1.0,52,0.00,,,0.00,WeatherCatV1.15B25,2013-05-10 08:36:00,
2013-05-10 04:41:00,63.5,45.6,29.86,ESE,122,0.0,0.0,52,0.00,,,0.00,WeatherCatV1.15B25,2013-05-10 08:41:00,
2013-05-10 04:46:00,63.4,46.0,29.86,SSE,159,0.0,2.0,53,0.00,,,0.00,WeatherCatV1.15B25,2013-05-10 08:46:00,
2013-05-10 04:51:00,63.2,45.8,29.85,SSE,159,1.0,2.0,53,0.00,,,0.00,WeatherCatV1.15B25,2013-05-10 08:51:00,
2013-05-10 04:56:00,63.1,46.2,29.85,SSE,159,0.0,2.0,54,0.00,,,0.00,WeatherCatV1.15B25,2013-05-10 08:56:00,
2013-05-10 05:01:00,63.1,46.7,29.85,ESE,111,0.0,2.0,55,0.00,,,0.00,WeatherCatV1.15B25,2013-05-10 09:01:00,
2013-05-10 05:06:00,63.0,46.6,29.85,ESE,111,0.0,2.0,55,0.00,,,0.00,WeatherCatV1.15B25,2013-05-10 09:06:00,
2013-05-10 05:11:00,63.0,47.1,29.85,ESE,121,0.0,0.0,56,0.00,,,0.00,WeatherCatV1.15B25,2013-05-10 09:11:00,
2013-05-10 05:16:00,62.9,47.0,29.85,ESE,121,2.0,2.0,56,0.00,,,0.00,WeatherCatV1.15B25,2013-05-10 09:16:00,
2013-05-10 05:21:00,63.0,47.1,29.85,ESE,121,0.0,2.0,56,0.00,,,0.00,WeatherCatV1.15B25,2013-05-10 09:21:00,
2013-05-10 05:26:00,62.8,47.3,29.85,ESE,121,2.0,2.0,57,0.00,,,0.00,WeatherCatV1.15B25,2013-05-10 09:26:00,
2013-05-10 05:31:00,62.7,47.7,29.85,ESE,121,0.0,3.0,58,0.00,,,0.00,WeatherCatV1.15B25,2013-05-10 09:31:00,
2013-05-10 05:36:00,62.7,47.7,29.85,ESE,121,0.0,2.0,58,0.00,,,0.00,WeatherCatV1.15B25,2013-05-10 09:36:00,
2013-05-10 05:41:00,62.7,49.1,29.85,ESE,121,1.0,4.0,61,0.00,,,0.00,WeatherCatV1.15B25,2013-05-10 09:41:00,
2013-05-10 05:46:00,62.8,49.1,29.85,ESE,117,4.0,4.0,61,0.00,,,0.00,WeatherCatV1.15B25,2013-05-10 09:46:00,
2013-05-10 05:51:00,62.8,49.6,29.85,SE,126,3.0,3.0,62,0.00,,,0.00,WeatherCatV1.15B25,2013-05-10 09:51:00,
2013-05-10 05:56:00,62.8,50.0,29.85,ESE,123,0.0,4.0,63,0.00,,,0.00,WeatherCatV1.15B25,2013-05-10 09:56:00,
2013-05-10 06:01:00,62.8,50.4,29.85,SE,133,2.0,5.0,64,0.00,,,0.00,WeatherCatV1.15B25,2013-05-10 10:01:00,
2013-05-10 06:06:00,62.7,50.8,29.85,SE,132,0.0,0.0,65,0.00,,,0.00,WeatherCatV1.15B25,2013-05-10 10:06:00,
2013-05-10 06:11:00,62.6,51.5,29.85,SE,132,0.0,1.0,67,0.00,,,0.00,WeatherCatV1.15B25,2013-05-10 10:11:00,
2013-05-10 06:16:00,62.4,51.7,29.84,ESE,110,1.0,4.0,68,0.00,,,0.00,WeatherCatV1.15B25,2013-05-10 10:16:00,
2013-05-10 06:21:00,62.4,52.1,29.84,ESE,111,0.0,0.0,69,0.00,,,0.00,WeatherCatV1.15B25,2013-05-10 10:21:00,
2013-05-10 06:26:00,62.1,52.6,29.85,South,171,3.0,3.0,71,0.00,,,0.00,WeatherCatV1.15B25,2013-05-10 10:26:00,
2013-05-10 06:31:00,62.1,52.6,29.86,SSW,193,2.0,4.0,71,0.00,,,0.00,WeatherCatV1.15B25,2013-05-10 10:31:00,
2013-05-10 06:36:00,62.1,52.6,29.87,South,175,0.0,4.0,71,0.00,,,0.00,WeatherCatV1.15B25,2013-05-10 10:36:00,
2013-05-10 06:41:00,61.8,52.7,29.87,ESE,103,2.0,3.0,72,0.00,,,0.01,WeatherCatV1.15B25,2013-05-10 10:41:00,
2013-05-10 06:46:00,61.1,53.1,29.87,ESE,102,0.0,2.0,75,0.00,,,0.01,WeatherCatV1.15B25,2013-05-10 10:46:00,
2013-05-10 06:51:00,60.5,53.2,29.87,ESE,102,0.0,1.0,77,0.08,,,0.02,WeatherCatV1.15B25,2013-05-10 10:51:00,
2013-05-10 06:56:00,59.9,53.4,29.87,SSE,155,0.0,0.0,79,0.12,,,0.03,WeatherCatV1.15B25,2013-05-10 10:56:00,
2013-05-10 07:01:00,59.4,53.6,29.87,SE,137,0.0,1.0,81,0.06,,,0.03,WeatherCatV1.15B25,2013-05-10 11:01:00,
2013-05-10 07:06:00,59.2,53.7,29.87,ESE,123,0.0,5.0,82,0.04,,,0.03,WeatherCatV1.15B25,2013-05-10 11:06:00,
2013-05-10 07:11:00,59.0,53.8,29.87,ESE,122,0.0,2.0,83,0.00,,,0.03,WeatherCatV1.15B25,2013-05-10 11:11:00,
2013-05-10 07:16:00,59.1,54.3,29.86,ESE,123,0.0,1.0,84,0.00,,,0.03,WeatherCatV1.15B25,2013-05-10 11:16:00,
2013-05-10 07:21:00,59.0,54.2,29.87,ESE,123,0.0,0.0,84,0.00,,,0.03,WeatherCatV1.15B25,2013-05-10 11:21:00,
2013-05-10 07:26:00,59.2,54.7,29.86,ESE,122,3.0,3.0,85,0.00,,,0.03,WeatherCatV1.15B25,2013-05-10 11:26:00,
2013-05-10 07:31:00,59.6,55.1,29.86,SE,140,0.0,3.0,85,0.00,,,0.03,WeatherCatV1.15B25,2013-05-10 11:31:00,
2013-05-10 07:36:00,60.0,55.5,29.86,ESE,123,2.0,3.0,85,0.00,,,0.03,WeatherCatV1.15B25,2013-05-10 11:36:00,
2013-05-10 07:41:00,60.2,55.7,29.86,SE,128,0.0,2.0,85,0.00,,,0.03,WeatherCatV1.15B25,2013-05-10 11:41:00,
2013-05-10 07:46:00,60.4,55.9,29.85,ESE,115,1.0,3.0,85,0.00,,,0.03,WeatherCatV1.15B25,2013-05-10 11:46:00,
2013-05-10 07:51:00,60.6,56.1,29.85,SE,130,0.0,0.0,85,0.00,,,0.03,WeatherCatV1.15B25,2013-05-10 11:51:00,
2013-05-10 07:56:00,60.9,56.4,29.85,SE,131,2.0,2.0,85,0.00,,,0.03,WeatherCatV1.15B25,2013-05-10 11:56:00,
2013-05-10 08:01:00,61.2,56.7,29.85,ESE,119,0.0,4.0,85,0.00,,,0.03,WeatherCatV1.15B25,2013-05-10 12:01:00,
2013-05-10 08:06:00,61.4,56.5,29.85,South,191,0.0,3.0,84,0.00,,,0.03,WeatherCatV1.15B25,2013-05-10 12:06:00,
2013-05-10 08:11:00,61.7,56.8,29.84,SW,221,0.0,4.0,84,0.00,,,0.03,WeatherCatV1.15B25,2013-05-10 12:11:00,
2013-05-10 08:16:00,61.9,57.0,29.84,SE,130,1.0,1.0,84,0.00,,,0.03,WeatherCatV1.15B25,2013-05-10 12:16:00,
2013-05-10 08:21:00,62.2,57.0,29.84,ESE,121,3.0,3.0,83,0.00,,,0.03,WeatherCatV1.15B25,2013-05-10 12:21:00,
2013-05-10 08:26:00,62.5,57.3,29.84,ESE,118,2.0,5.0,83,0.00,,,0.03,WeatherCatV1.15B25,2013-05-10 12:26:00,
2013-05-10 08:31:00,63.1,57.5,29.84,East,92,2.0,5.0,82,0.00,,,0.03,WeatherCatV1.15B25,2013-05-10 12:31:00,
2013-05-10 08:36:00,63.6,57.3,29.83,ESE,115,3.0,7.0,80,0.00,,,0.03,WeatherCatV1.15B25,2013-05-10 12:36:00,
2013-05-10 08:41:00,64.2,57.5,29.84,SE,138,1.0,4.0,79,0.00,,,0.03,WeatherCatV1.15B25,2013-05-10 12:41:00,
2013-05-10 08:46:00,64.6,57.6,29.83,SE,139,6.0,9.0,78,0.00,,,0.03,WeatherCatV1.15B25,2013-05-10 12:46:00,
2013-05-10 08:51:00,64.9,57.5,29.83,SE,129,2.0,6.0,77,0.00,,,0.03,WeatherCatV1.15B25,2013-05-10 12:51:00,
2013-05-10 08:56:00,65.4,57.6,29.83,SSE,166,1.0,9.0,76,0.00,,,0.03,WeatherCatV1.15B25,2013-05-10 12:56:00,
2013-05-10 09:01:00,65.9,58.1,29.83,South,182,0.0,4.0,76,0.00,,,0.03,WeatherCatV1.15B25,2013-05-10 13:01:00,
2013-05-10 09:06:00,66.6,58.0,29.83,ESE,120,5.0,9.0,74,0.00,,,0.03,WeatherCatV1.15B25,2013-05-10 13:06:00,
2013-05-10 09:11:00,66.9,58.3,29.83,ESE,119,8.0,8.0,74,0.00,,,0.03,WeatherCatV1.15B25,2013-05-10 13:11:00,
2013-05-10 09:16:00,67.0,58.0,29.83,SE,142,0.0,11.0,73,0.00,,,0.03,WeatherCatV1.15B25,2013-05-10 13:16:00,
2013-05-10 09:21:00,67.0,58.0,29.83,North,355,2.0,5.0,73,0.00,,,0.03,WeatherCatV1.15B25,2013-05-10 13:21:00,
2013-05-10 09:26:00,67.5,58.5,29.83,ESE,119,4.0,6.0,73,0.00,,,0.03,WeatherCatV1.15B25,2013-05-10 13:26:00,
2013-05-10 09:31:00,67.6,58.6,29.84,East,91,1.0,3.0,73,0.00,,,0.03,WeatherCatV1.15B25,2013-05-10 13:31:00,
2013-05-10 09:36:00,67.6,58.2,29.83,ESE,105,3.0,5.0,72,0.00,,,0.03,WeatherCatV1.15B25,2013-05-10 13:36:00,
2013-05-10 09:41:00,67.8,58.4,29.83,SSW,211,6.0,6.0,72,0.00,,,0.03,WeatherCatV1.15B25,2013-05-10 13:41:00,
2013-05-10 09:46:00,68.1,59.1,29.83,SSE,153,0.0,6.0,73,0.00,,,0.03,WeatherCatV1.15B25,2013-05-10 13:46:00,
2013-05-10 09:51:00,68.5,59.5,29.83,SE,130,0.0,6.0,73,0.00,,,0.03,WeatherCatV1.15B25,2013-05-10 13:51:00,
2013-05-10 09:56:00,68.6,58.8,29.83,SE,136,5.0,9.0,71,0.00,,,0.03,WeatherCatV1.15B25,2013-05-10 13:56:00,
2013-05-10 10:01:00,68.7,58.9,29.83,SSW,204,5.0,6.0,71,0.00,,,0.03,WeatherCatV1.15B25,2013-05-10 14:01:00,
2013-05-10 10:06:00,68.7,59.3,29.83,SSE,148,0.0,7.0,72,0.00,,,0.03,WeatherCatV1.15B25,2013-05-10 14:06:00,
2013-05-10 10:11:00,68.8,59.4,29.82,SE,130,4.0,4.0,72,0.00,,,0.03,WeatherCatV1.15B25,2013-05-10 14:11:00,
2013-05-10 10:16:00,69.0,59.6,29.83,SSE,152,0.0,5.0,72,0.00,,,0.03,WeatherCatV1.15B25,2013-05-10 14:16:00,
2013-05-10 10:21:00,69.4,60.0,29.82,East,86,2.0,3.0,72,0.00,,,0.03,WeatherCatV1.15B25,2013-05-10 14:21:00,
2013-05-10 10:26:00,69.9,60.1,29.82,SE,125,0.0,6.0,71,0.00,,,0.03,WeatherCatV1.15B25,2013-05-10 14:26:00,
2013-05-10 10:31:00,70.1,59.8,29.82,SSW,206,4.0,4.0,70,0.00,,,0.03,WeatherCatV1.15B25,2013-05-10 14:31:00,
2013-05-10 10:36:00,70.4,60.1,29.81,SSE,160,0.0,5.0,70,0.00,,,0.03,WeatherCatV1.15B25,2013-05-10 14:36:00,
2013-05-10 10:41:00,70.3,59.6,29.82,ESE,112,4.0,8.0,69,0.00,,,0.03,WeatherCatV1.15B25,2013-05-10 14:41:00,
2013-05-10 10:46:00,70.4,60.5,29.81,South,185,3.0,6.0,71,0.00,,,0.03,WeatherCatV1.15B25,2013-05-10 14:46:00,
2013-05-10 10:51:00,70.3,60.0,29.81,South,186,2.0,5.0,70,0.00,,,0.03,WeatherCatV1.15B25,2013-05-10 14:51:00,
2013-05-10 10:56:00,70.1,59.8,29.82,ESE,111,3.0,6.0,70,0.00,,,0.03,WeatherCatV1.15B25,2013-05-10 14:56:00,
2013-05-10 11:01:00,70.0,59.8,29.81,NNE,22,1.0,6.0,70,0.00,,,0.03,WeatherCatV1.15B25,2013-05-10 15:01:00,
2013-05-10 11:06:00,70.1,60.2,29.81,SW,234,1.0,6.0,71,0.00,,,0.03,WeatherCatV1.15B25,2013-05-10 15:06:00,
2013-05-10 11:11:00,70.2,59.5,29.81,SSW,206,0.0,4.0,69,0.00,,,0.03,WeatherCatV1.15B25,2013-05-10 15:11:00,
2013-05-10 11:16:00,70.5,60.2,29.81,SSW,209,2.0,5.0,70,0.00,,,0.03,WeatherCatV1.15B25,2013-05-10 15:16:00,
2013-05-10 11:21:00,70.7,60.4,29.81,SSW,207,6.0,6.0,70,0.00,,,0.03,WeatherCatV1.15B25,2013-05-10 15:21:00,
2013-05-10 11:26:00,70.7,60.0,29.81,SSW,199,5.0,6.0,69,0.00,,,0.03,WeatherCatV1.15B25,2013-05-10 15:26:00,
2013-05-10 11:31:00,71.0,60.3,29.81,ESE,110,4.0,6.0,69,0.00,,,0.03,WeatherCatV1.15B25,2013-05-10 15:31:00,
2013-05-10 11:36:00,71.3,60.6,29.81,ESE,118,3.0,3.0,69,0.00,,,0.03,WeatherCatV1.15B25,2013-05-10 15:36:00,
2013-05-10 11:41:00,71.4,60.3,29.80,SSE,150,0.0,10.0,68,0.00,,,0.03,WeatherCatV1.15B25,2013-05-10 15:41:00,
2013-05-10 11:46:00,71.7,60.6,29.80,ESE,113,10.0,12.0,68,0.00,,,0.03,WeatherCatV1.15B25,2013-05-10 15:46:00,
2013-05-10 11:51:00,71.8,60.2,29.80,SE,138,2.0,7.0,67,0.00,,,0.03,WeatherCatV1.15B25,2013-05-10 15:51:00,
2013-05-10 11:56:00,72.1,60.5,29.80,ESE,118,3.0,4.0,67,0.00,,,0.03,WeatherCatV1.15B25,2013-05-10 15:56:00,
2013-05-10 12:01:00,72.3,61.1,29.80,ESE,121,1.0,3.0,68,0.00,,,0.03,WeatherCatV1.15B25,2013-05-10 16:01:00,
2013-05-10 12:06:00,72.7,61.5,29.80,NNE,24,0.0,5.0,68,0.00,,,0.03,WeatherCatV1.15B25,2013-05-10 16:06:00,
2013-05-10 12:11:00,72.6,61.0,29.80,ESE,107,4.0,4.0,67,0.00,,,0.03,WeatherCatV1.15B25,2013-05-10 16:11:00,
2013-05-10 12:16:00,72.5,60.5,29.80,SSE,165,1.0,5.0,66,0.00,,,0.03,WeatherCatV1.15B25,2013-05-10 16:16:00,
2013-05-10 12:21:00,72.5,60.9,29.79,ESE,121,0.0,2.0,67,0.00,,,0.03,WeatherCatV1.15B25,2013-05-10 16:21:00,
2013-05-10 12:26:00,72.8,61.2,29.79,SW,221,2.0,3.0,67,0.00,,,0.03,WeatherCatV1.15B25,2013-05-10 16:26:00,
2013-05-10 12:31:00,73.5,61.4,29.79,SSW,204,3.0,8.0,66,0.00,,,0.03,WeatherCatV1.15B25,2013-05-10 16:31:00,
2013-05-10 12:36:00,74.3,61.3,29.79,SW,217,1.0,7.0,64,0.00,,,0.03,WeatherCatV1.15B25,2013-05-10 16:36:00,
2013-05-10 12:41:00,74.4,62.3,29.78,SE,125,0.0,4.0,66,0.00,,,0.03,WeatherCatV1.15B25,2013-05-10 16:41:00,
2013-05-10 12:46:00,75.0,62.0,29.79,ESE,121,7.0,7.0,64,0.00,,,0.03,WeatherCatV1.15B25,2013-05-10 16:46:00,
2013-05-10 12:51:00,74.7,61.2,29.78,SSW,198,3.0,4.0,63,0.00,,,0.03,WeatherCatV1.15B25,2013-05-10 16:51:00,
2013-05-10 12:56:00,74.9,60.1,29.79,South,190,2.0,11.0,60,0.00,,,0.03,WeatherCatV1.15B25,2013-05-10 16:56:00,
2013-05-10 13:01:00,75.0,60.2,29.78,SE,138,1.0,8.0,60,0.00,,,0.03,WeatherCatV1.15B25,2013-05-10 17:01:00,
2013-05-10 13:06:00,75.0,60.6,29.78,SE,130,0.0,4.0,61,0.00,,,0.03,WeatherCatV1.15B25,2013-05-10 17:06:00,
2013-05-10 13:11:00,75.2,61.3,29.78,SE,132,0.0,7.0,62,0.00,,,0.03,WeatherCatV1.15B25,2013-05-10 17:11:00,
2013-05-10 13:16:00,75.0,59.7,29.78,SSW,209,3.0,9.0,59,0.00,,,0.03,WeatherCatV1.15B25,2013-05-10 17:16:00,
2013-05-10 13:21:00,74.6,59.8,29.78,SW,217,2.0,7.0,60,0.00,,,0.03,WeatherCatV1.15B25,2013-05-10 17:21:00,
2013-05-10 13:26:00,74.5,60.2,29.78,SE,132,1.0,5.0,61,0.00,,,0.03,WeatherCatV1.15B25,2013-05-10 17:26:00,
2013-05-10 13:31:00,74.6,60.2,29.78,SW,223,4.0,5.0,61,0.00,,,0.03,WeatherCatV1.15B25,2013-05-10 17:31:00,
2013-05-10 13:36:00,74.7,60.8,29.77,SW,224,2.0,5.0,62,0.00,,,0.03,WeatherCatV1.15B25,2013-05-10 17:36:00,
2013-05-10 13:41:00,75.0,61.1,29.77,WSW,253,4.0,4.0,62,0.00,,,0.03,WeatherCatV1.15B25,2013-05-10 17:41:00,
2013-05-10 13:46:00,75.1,61.2,29.77,SSE,160,4.0,7.0,62,0.00,,,0.03,WeatherCatV1.15B25,2013-05-10 17:46:00,
2013-05-10 13:51:00,75.2,60.8,29.77,SSW,192,0.0,3.0,61,0.00,,,0.03,WeatherCatV1.15B25,2013-05-10 17:51:00,
2013-05-10 13:56:00,75.4,61.0,29.77,NNW,333,0.0,6.0,61,0.00,,,0.03,WeatherCatV1.15B25,2013-05-10 17:56:00,
2013-05-10 14:01:00,75.4,60.5,29.77,SE,136,0.0,13.0,60,0.00,,,0.03,WeatherCatV1.15B25,2013-05-10 18:01:00,
2013-05-10 14:06:00,75.2,60.8,29.77,South,189,0.0,5.0,61,0.00,,,0.03,WeatherCatV1.15B25,2013-05-10 18:06:00,
2013-05-10 14:11:00,75.2,60.8,29.77,SSW,207,5.0,6.0,61,0.00,,,0.03,WeatherCatV1.15B25,2013-05-10 18:11:00,
2013-05-10 14:16:00,74.9,60.1,29.77,SSW,206,3.0,12.0,60,0.00,,,0.03,WeatherCatV1.15B25,2013-05-10 18:16:00,
2013-05-10 14:21:00,74.6,60.7,29.76,SE,132,3.0,4.0,62,0.00,,,0.03,WeatherCatV1.15B25,2013-05-10 18:21:00,
2013-05-10 14:26:00,74.0,61.9,29.76,SSE,152,3.0,4.0,66,0.16,,,0.04,WeatherCatV1.15B25,2013-05-10 18:26:00,
2013-05-10 14:31:00,72.5,61.7,29.76,SSW,202,0.0,0.0,69,0.07,,,0.04,WeatherCatV1.15B25,2013-05-10 18:31:00,
2013-05-10 14:36:00,72.1,62.2,29.76,SW,230,0.0,2.0,71,0.04,,,0.04,WeatherCatV1.15B25,2013-05-10 18:36:00,
2013-05-10 14:41:00,72.5,61.7,29.76,SSW,199,0.0,5.0,69,0.00,,,0.04,WeatherCatV1.15B25,2013-05-10 18:41:00,
2013-05-10 14:46:00,73.3,62.1,29.75,WSW,244,2.0,3.0,68,0.00,,,0.04,WeatherCatV1.15B25,2013-05-10 18:46:00,
2013-05-10 14:51:00,73.8,61.3,29.75,SW,225,3.0,6.0,65,0.00,,,0.04,WeatherCatV1.15B25,2013-05-10 18:51:00,
2013-05-10 14:56:00,74.0,61.5,29.75,SSW,203,0.0,0.0,65,0.00,,,0.04,WeatherCatV1.15B25,2013-05-10 18:56:00,
2013-05-10 15:01:00,74.0,61.0,29.75,SSW,205,1.0,4.0,64,0.00,,,0.04,WeatherCatV1.15B25,2013-05-10 19:01:00,
2013-05-10 15:06:00,74.0,61.0,29.75,SSW,209,3.0,4.0,64,0.00,,,0.04,WeatherCatV1.15B25,2013-05-10 19:06:00,
2013-05-10 15:11:00,73.8,60.8,29.74,SSW,199,0.0,4.0,64,0.00,,,0.04,WeatherCatV1.15B25,2013-05-10 19:11:00,
2013-05-10 15:16:00,73.5,61.4,29.75,SE,126,0.0,2.0,66,0.00,,,0.04,WeatherCatV1.15B25,2013-05-10 19:16:00,
2013-05-10 15:21:00,72.7,61.1,29.75,SSW,200,1.0,3.0,67,0.00,,,0.05,WeatherCatV1.15B25,2013-05-10 19:21:00,
2013-05-10 15:26:00,72.0,61.7,29.75,SSW,200,0.0,0.0,70,0.00,,,0.05,WeatherCatV1.15B25,2013-05-10 19:26:00,
2013-05-10 15:31:00,71.2,62.1,29.76,SSW,200,0.0,0.0,73,0.00,,,0.05,WeatherCatV1.15B25,2013-05-10 19:31:00,
2013-05-10 15:36:00,69.6,61.7,29.75,SSW,202,2.0,6.0,76,0.54,,,0.14,WeatherCatV1.15B25,2013-05-10 19:36:00,
2013-05-10 15:41:00,68.1,61.3,29.76,SW,221,1.0,4.0,79,0.10,,,0.14,WeatherCatV1.15B25,2013-05-10 19:41:00,
2013-05-10 15:46:00,67.4,61.4,29.76,WSW,240,2.0,3.0,81,0.05,,,0.14,WeatherCatV1.15B25,2013-05-10 19:46:00,
2013-05-10 15:52:00,66.8,60.8,29.76,SW,234,1.0,4.0,81,0.00,,,0.14,WeatherCatV1.15B25,2013-05-10 19:52:00,
2013-05-10 15:57:00,66.3,60.6,29.75,WSW,244,2.0,4.0,82,0.48,,,0.16,WeatherCatV1.15B25,2013-05-10 19:57:00,
2013-05-10 16:02:00,65.9,60.6,29.75,WSW,240,0.0,3.0,83,0.13,,,0.17,WeatherCatV1.15B25,2013-05-10 20:02:00,
2013-05-10 16:07:00,65.6,60.6,29.77,SSW,205,4.0,4.0,84,0.81,,,0.20,WeatherCatV1.15B25,2013-05-10 20:07:00,
2013-05-10 16:12:00,65.3,60.3,29.76,SSW,199,0.0,2.0,84,0.17,,,0.21,WeatherCatV1.15B25,2013-05-10 20:12:00,
2013-05-10 16:17:00,65.2,60.6,29.75,SSW,200,0.0,1.0,85,1.01,,,0.28,WeatherCatV1.15B25,2013-05-10 20:17:00,
2013-05-10 16:22:00,64.7,59.7,29.74,SSW,213,1.0,4.0,84,0.14,,,0.29,WeatherCatV1.15B25,2013-05-10 20:22:00,
2013-05-10 16:27:00,64.6,59.7,29.74,SW,226,0.0,0.0,84,0.06,,,0.29,WeatherCatV1.15B25,2013-05-10 20:27:00,
2013-05-10 16:32:00,64.4,59.5,29.75,SSW,202,1.0,3.0,84,0.05,,,0.30,WeatherCatV1.15B25,2013-05-10 20:32:00,
2013-05-10 16:37:00,64.3,59.4,29.74,SSW,202,0.0,0.0,84,0.05,,,0.30,WeatherCatV1.15B25,2013-05-10 20:37:00,
2013-05-10 16:42:00,64.1,59.5,29.74,SSW,202,0.0,0.0,85,0.05,,,0.30,WeatherCatV1.15B25,2013-05-10 20:42:00,
2013-05-10 16:47:00,63.9,59.3,29.74,SSW,202,0.0,0.0,85,0.05,,,0.31,WeatherCatV1.15B25,2013-05-10 20:47:00,
2013-05-10 16:52:00,63.8,59.5,29.75,SSW,202,0.0,0.0,86,0.05,,,0.31,WeatherCatV1.15B25,2013-05-10 20:52:00,
2013-05-10 16:57:00,63.4,59.1,29.76,SSW,202,1.0,2.0,86,0.04,,,0.31,WeatherCatV1.15B25,2013-05-10 20:57:00,
2013-05-10 17:02:00,63.2,59.3,29.75,SSW,202,1.0,1.0,87,0.00,,,0.31,WeatherCatV1.15B25,2013-05-10 21:02:00,
2013-05-10 17:07:00,63.0,59.1,29.76,SSW,210,2.0,5.0,87,0.00,,,0.32,WeatherCatV1.15B25,2013-05-10 21:07:00,
2013-05-10 17:12:00,63.1,59.2,29.76,SSW,203,4.0,10.0,87,0.47,,,0.34,WeatherCatV1.15B25,2013-05-10 21:12:00,
2013-05-10 17:17:00,63.0,59.1,29.76,South,180,2.0,4.0,87,0.12,,,0.35,WeatherCatV1.15B25,2013-05-10 21:17:00,
2013-05-10 17:22:00,62.6,58.3,29.76,SSW,211,1.0,4.0,86,0.12,,,0.36,WeatherCatV1.15B25,2013-05-10 21:22:00,
2013-05-10 17:27:00,62.3,58.1,29.75,SSW,192,1.0,3.0,86,0.09,,,0.37,WeatherCatV1.15B25,2013-05-10 21:27:00,
2013-05-10 17:32:00,62.2,58.3,29.75,SSW,193,0.0,0.0,87,0.14,,,0.38,WeatherCatV1.15B25,2013-05-10 21:32:00,
2013-05-10 17:37:00,62.0,58.1,29.76,SSW,193,2.0,3.0,87,0.25,,,0.40,WeatherCatV1.15B25,2013-05-10 21:37:00,
2013-05-10 17:42:00,61.9,58.0,29.76,South,186,0.0,6.0,87,0.08,,,0.40,WeatherCatV1.15B25,2013-05-10 21:42:00,
2013-05-10 17:47:00,62.0,58.1,29.76,SSE,159,2.0,5.0,87,0.05,,,0.41,WeatherCatV1.15B25,2013-05-10 21:47:00,
2013-05-10 17:52:00,62.1,58.2,29.76,SSW,202,2.0,4.0,87,0.05,,,0.41,WeatherCatV1.15B25,2013-05-10 21:52:00,
2013-05-10 17:57:00,62.2,58.3,29.76,SSW,212,1.0,3.0,87,0.06,,,0.42,WeatherCatV1.15B25,2013-05-10 21:57:00,
2013-05-10 17:58:00,62.2,58.3,29.76,SSW,197,2.0,3.0,87,0.06,,,0.42,WeatherCatV1.15B25,2013-05-10 21:58:00,
2013-05-10 17:59:00,62.2,58.3,29.76,SSW,197,2.0,3.0,87,0.06,,,0.42,WeatherCatV1.15B25,2013-05-10 21:59:00,
2013-05-10 18:00:00,62.2,58.3,29.76,SSW,197,2.0,3.0,87,0.06,,,0.42,WeatherCatV1.15B25,2013-05-10 22:00:00,
2013-05-10 18:01:00,62.2,58.3,29.76,SSW,197,0.0,3.0,87,0.06,,,0.42,WeatherCatV1.15B25,2013-05-10 22:01:00,
2013-05-10 18:03:00,62.2,58.3,29.76,SSW,197,0.0,1.0,87,0.06,,,0.42,WeatherCatV1.15B25,2013-05-10 22:03:00,
2013-05-10 18:08:00,62.2,58.3,29.76,ESE,119,3.0,3.0,87,0.06,,,0.43,WeatherCatV1.15B25,2013-05-10 22:08:00,
2013-05-10 18:13:00,62.2,58.3,29.76,ESE,123,0.0,5.0,87,0.08,,,0.44,WeatherCatV1.15B25,2013-05-10 22:13:00,
2013-05-10 18:18:00,62.2,58.6,29.75,SE,126,1.0,5.0,88,0.08,,,0.44,WeatherCatV1.15B25,2013-05-10 22:18:00,
2013-05-10 18:23:00,62.1,58.5,29.75,ESE,113,3.0,5.0,88,0.06,,,0.44,WeatherCatV1.15B25,2013-05-10 22:23:00,
2013-05-10 18:28:00,62.1,58.5,29.75,ESE,103,3.0,3.0,88,0.06,,,0.45,WeatherCatV1.15B25,2013-05-10 22:28:00,
2013-05-10 18:33:00,62.1,58.5,29.75,ESE,108,2.0,3.0,88,0.06,,,0.45,WeatherCatV1.15B25,2013-05-10 22:33:00,
2013-05-10 18:38:00,62.2,58.9,29.75,SSE,165,1.0,2.0,89,0.04,,,0.46,WeatherCatV1.15B25,2013-05-10 22:38:00,
2013-05-10 18:43:00,62.2,58.9,29.74,SE,132,3.0,3.0,89,0.04,,,0.46,WeatherCatV1.15B25,2013-05-10 22:43:00,
2013-05-10 18:48:00,62.2,58.9,29.74,SE,132,0.0,1.0,89,0.04,,,0.46,WeatherCatV1.15B25,2013-05-10 22:48:00,
2013-05-10 18:53:00,62.1,58.8,29.74,SE,132,0.0,0.0,89,0.04,,,0.46,WeatherCatV1.15B25,2013-05-10 22:53:00,
2013-05-10 18:58:00,62.1,58.8,29.74,SE,132,0.0,0.0,89,0.00,,,0.46,WeatherCatV1.15B25,2013-05-10 22:58:00,
2013-05-10 19:03:00,62.2,58.9,29.74,SE,132,0.0,1.0,89,0.00,,,0.47,WeatherCatV1.15B25,2013-05-10 23:03:00,
2013-05-10 19:08:00,62.2,58.9,29.74,SE,132,0.0,0.0,89,0.00,,,0.47,WeatherCatV1.15B25,2013-05-10 23:08:00,
2013-05-10 19:13:00,62.1,58.8,29.74,South,175,2.0,2.0,89,0.00,,,0.47,WeatherCatV1.15B25,2013-05-10 23:13:00,
2013-05-10 19:18:00,62.1,58.8,29.74,SE,134,0.0,3.0,89,0.04,,,0.48,WeatherCatV1.15B25,2013-05-10 23:18:00,
2013-05-10 19:23:00,62.1,58.8,29.74,SE,129,0.0,0.0,89,0.04,,,0.48,WeatherCatV1.15B25,2013-05-10 23:23:00,
2013-05-10 19:28:00,62.1,58.8,29.74,SE,130,0.0,0.0,89,0.04,,,0.48,WeatherCatV1.15B25,2013-05-10 23:28:00,
2013-05-10 19:33:00,62.2,59.2,29.74,ESE,115,1.0,3.0,90,0.04,,,0.49,WeatherCatV1.15B25,2013-05-10 23:33:00,
2013-05-10 19:38:00,62.3,59.3,29.74,SE,133,0.0,0.0,90,0.04,,,0.49,WeatherCatV1.15B25,2013-05-10 23:38:00,
2013-05-10 19:43:00,62.3,59.3,29.74,SE,134,0.0,0.0,90,0.06,,,0.50,WeatherCatV1.15B25,2013-05-10 23:43:00,
2013-05-10 19:48:00,62.3,59.3,29.74,ESE,115,0.0,2.0,90,0.06,,,0.50,WeatherCatV1.15B25,2013-05-10 23:48:00,
2013-05-10 19:53:00,62.3,59.3,29.74,SSE,148,0.0,5.0,90,0.05,,,0.50,WeatherCatV1.15B25,2013-05-10 23:53:00,
2013-05-10 19:58:00,62.3,59.3,29.74,ESE,119,0.0,1.0,90,0.00,,,0.50,WeatherCatV1.15B25,2013-05-10 23:58:00,
2013-05-10 20:03:00,62.3,59.3,29.74,ESE,119,0.0,3.0,90,0.00,,,0.50,WeatherCatV1.15B25,2013-05-11 00:03:00,
2013-05-10 20:08:00,62.3,59.3,29.74,ESE,119,2.0,2.0,90,0.00,,,0.50,WeatherCatV1.15B25,2013-05-11 00:08:00,
2013-05-10 20:13:00,62.3,59.3,29.74,South,173,0.0,0.0,90,0.00,,,0.51,WeatherCatV1.15B25,2013-05-11 00:13:00,
2013-05-10 20:18:00,62.2,59.2,29.74,South,188,2.0,2.0,90,0.00,,,0.51,WeatherCatV1.15B25,2013-05-11 00:18:00,
2013-05-10 20:23:00,62.2,59.2,29.74,East,99,0.0,2.0,90,0.00,,,0.51,WeatherCatV1.15B25,2013-05-11 00:23:00,
2013-05-10 20:28:00,62.2,59.2,29.74,East,101,2.0,3.0,90,0.00,,,0.51,WeatherCatV1.15B25,2013-05-11 00:28:00,
2013-05-10 20:33:00,62.1,59.1,29.74,SSE,154,0.0,0.0,90,0.00,,,0.52,WeatherCatV1.15B25,2013-05-11 00:33:00,
2013-05-10 20:38:00,62.1,59.1,29.74,SSE,153,0.0,0.0,90,0.00,,,0.52,WeatherCatV1.15B25,2013-05-11 00:38:00,
2013-05-10 20:43:00,62.0,59.0,29.73,SE,134,0.0,2.0,90,0.00,,,0.52,WeatherCatV1.15B25,2013-05-11 00:43:00,
2013-05-10 20:48:00,61.9,58.9,29.73,SE,133,2.0,3.0,90,0.00,,,0.52,WeatherCatV1.15B25,2013-05-11 00:48:00,
2013-05-10 20:53:00,61.9,58.9,29.73,SE,134,1.0,3.0,90,0.00,,,0.52,WeatherCatV1.15B25,2013-05-11 00:53:00,
2013-05-10 20:58:00,61.8,58.8,29.73,ENE,72,1.0,3.0,90,0.00,,,0.52,WeatherCatV1.15B25,2013-05-11 00:58:00,
2013-05-10 21:03:00,61.7,58.7,29.73,East,99,0.0,3.0,90,0.00,,,0.53,WeatherCatV1.15B25,2013-05-11 01:03:00,
2013-05-10 21:08:00,61.7,58.7,29.73,ESE,117,2.0,4.0,90,0.00,,,0.53,WeatherCatV1.15B25,2013-05-11 01:08:00,
2013-05-10 21:13:00,61.7,58.7,29.73,WSW,237,1.0,3.0,90,0.00,,,0.53,WeatherCatV1.15B25,2013-05-11 01:13:00,
2013-05-10 21:18:00,61.6,58.6,29.72,SE,139,1.0,3.0,90,0.00,,,0.53,WeatherCatV1.15B25,2013-05-11 01:18:00,
2013-05-10 21:23:00,61.6,58.6,29.72,ESE,116,0.0,0.0,90,0.00,,,0.54,WeatherCatV1.15B25,2013-05-11 01:23:00,
2013-05-10 21:28:00,61.6,58.6,29.73,East,101,0.0,0.0,90,0.00,,,0.54,WeatherCatV1.15B25,2013-05-11 01:28:00,
2013-05-10 21:33:00,61.6,58.6,29.73,East,93,0.0,3.0,90,0.00,,,0.54,WeatherCatV1.15B25,2013-05-11 01:33:00,
2013-05-10 21:38:00,61.5,58.5,29.73,SE,130,0.0,3.0,90,0.00,,,0.54,WeatherCatV1.15B25,2013-05-11 01:38:00,
2013-05-10 21:43:00,61.5,58.5,29.73,SE,130,0.0,1.0,90,0.00,,,0.54,WeatherCatV1.15B25,2013-05-11 01:43:00,
2013-05-10 21:48:00,61.5,58.5,29.73,SE,129,0.0,0.0,90,0.00,,,0.54,WeatherCatV1.15B25,2013-05-11 01:48:00,
2013-05-10 21:53:00,61.5,58.5,29.73,SE,130,0.0,0.0,90,0.00,,,0.54,WeatherCatV1.15B25,2013-05-11 01:53:00,
2013-05-10 21:58:00,61.4,58.4,29.73,SE,130,0.0,0.0,90,0.00,,,0.54,WeatherCatV1.15B25,2013-05-11 01:58:00,
2013-05-10 22:03:00,61.5,58.8,29.73,SE,129,0.0,0.0,91,0.00,,,0.54,WeatherCatV1.15B25,2013-05-11 02:03:00,
2013-05-10 22:08:00,61.4,58.7,29.73,SSW,196,1.0,3.0,91,0.00,,,0.54,WeatherCatV1.15B25,2013-05-11 02:08:00,
2013-05-10 22:13:00,61.4,58.7,29.73,SE,141,1.0,2.0,91,0.00,,,0.54,WeatherCatV1.15B25,2013-05-11 02:13:00,
2013-05-10 22:18:00,61.5,58.8,29.73,SE,141,0.0,0.0,91,0.00,,,0.54,WeatherCatV1.15B25,2013-05-11 02:18:00,
2013-05-10 22:23:00,61.5,58.8,29.73,SE,141,0.0,0.0,91,0.00,,,0.54,WeatherCatV1.15B25,2013-05-11 02:23:00,
2013-05-10 22:28:00,61.4,58.7,29.73,SE,141,1.0,3.0,91,0.00,,,0.54,WeatherCatV1.15B25,2013-05-11 02:28:00,
2013-05-10 22:33:00,61.5,58.8,29.73,SE,141,0.0,3.0,91,0.00,,,0.54,WeatherCatV1.15B25,2013-05-11 02:33:00,
2013-05-10 22:38:00,61.4,58.7,29.74,WNW,288,2.0,3.0,91,0.00,,,0.54,WeatherCatV1.15B25,2013-05-11 02:38:00,
2013-05-10 22:43:00,60.7,57.7,29.74,WNW,287,3.0,5.0,90,0.00,,,0.54,WeatherCatV1.15B25,2013-05-11 02:43:00,
2013-05-10 22:48:00,58.3,55.1,29.75,WNW,283,3.0,3.0,89,0.00,,,0.54,WeatherCatV1.15B25,2013-05-11 02:48:00,
2013-05-10 22:53:00,55.5,52.0,29.75,WNW,298,0.0,4.0,88,0.00,,,0.54,WeatherCatV1.15B25,2013-05-11 02:53:00,
2013-05-10 22:58:00,54.3,51.1,29.75,WSW,242,0.0,3.0,89,0.00,,,0.54,WeatherCatV1.15B25,2013-05-11 02:58:00,
2013-05-10 23:03:00,53.6,50.4,29.75,West,280,1.0,3.0,89,0.00,,,0.54,WeatherCatV1.15B25,2013-05-11 03:03:00,
2013-05-10 23:08:00,53.1,50.2,29.75,WNW,284,3.0,6.0,90,0.00,,,0.54,WeatherCatV1.15B25,2013-05-11 03:08:00,
2013-05-10 23:13:00,52.7,49.8,29.75,WNW,292,0.0,5.0,90,0.00,,,0.54,WeatherCatV1.15B25,2013-05-11 03:13:00,
2013-05-10 23:18:00,52.0,49.2,29.75,WNW,300,0.0,3.0,90,0.00,,,0.54,WeatherCatV1.15B25,2013-05-11 03:18:00,
2013-05-10 23:23:00,51.5,48.7,29.75,WNW,299,2.0,5.0,90,0.00,,,0.54,WeatherCatV1.15B25,2013-05-11 03:23:00,
2013-05-10 23:28:00,51.3,48.5,29.75,WNW,292,0.0,0.0,90,0.00,,,0.54,WeatherCatV1.15B25,2013-05-11 03:28:00,
2013-05-10 23:33:00,51.0,48.2,29.77,WSW,240,2.0,4.0,90,0.00,,,0.54,WeatherCatV1.15B25,2013-05-11 03:33:00,
2013-05-10 23:38:00,50.7,47.9,29.76,WNW,292,2.0,5.0,90,0.00,,,0.54,WeatherCatV1.15B25,2013-05-11 03:38:00,
2013-05-10 23:43:00,50.2,47.4,29.76,WSW,245,2.0,4.0,90,0.00,,,0.54,WeatherCatV1.15B25,2013-05-11 03:43:00,
2013-05-10 23:49:00,49.8,47.0,29.77,WSW,240,0.0,4.0,90,0.00,,,0.54,WeatherCatV1.15B25,2013-05-11 03:49:00,
2013-05-10 23:54:00,49.6,46.8,29.77,West,263,3.0,4.0,90,0.00,,,0.54,WeatherCatV1.15B25,2013-05-11 03:54:00,
2013-05-10 23:59:00,49.3,46.5,29.77,West,275,0.0,0.0,90,0.00,,,0.54,WeatherCatV1.15B25,2013-05-11 03:59:00,